Time;durP1;ratioP1;P1;durP2;ratioP2;P2;SDS_P1;SDS_P2;PMS_P1;PMS_P2;Temp;Humidity;BMP_temperature;BMP_pressure;BME280_temperature;BME280_humidity;BME280_pressure;Samples;Min_cycle;Max_cycle;Signal;HPM_P1;HPM_P2
2022/06/29 00:02:28;;;;;;;3.17;1.35;;;18.80;99.90;;;;;;4839454;29;20069;-89
2022/06/29 00:09:07;;;;;;;2.03;1.10;;;18.70;99.90;;;;;;4858907;29;20494;-90
2022/06/29 00:12:32;;;;;;;4.47;1.38;;;18.70;99.90;;;;;;4841597;29;20037;-90
2022/06/29 00:54:35;;;;;;;3.00;1.50;;;18.50;99.90;;;;;;4339206;26;20236;-89
2022/06/29 01:04:54;;;;;;;4.38;1.50;;;18.50;99.90;;;;;;4930557;28;20118;-88
2022/06/29 01:49:08;;;;;;;3.10;1.20;;;17.80;99.90;;;;;;3128610;23;20060;-89
2022/06/29 02:06:57;;;;;;;4.28;1.73;;;17.70;99.90;;;;;;4846227;29;20089;-90
2022/06/29 02:13:33;;;;;;;;;;;;;;;;;;;;;
2022/06/29 02:20:15;;;;;;;;;;;;;;;;;;;;;
2022/06/29 02:23:24;;;;;;;;;;;;;;;;;;;;;
2022/06/29 02:26:09;;;;;;;;;;;;;;;;;;;;;
2022/06/29 02:29:10;;;;;;;3.00;1.63;;;17.60;99.90;;;;;;4950991;28;20031;-89
2022/06/29 02:43:09;;;;;;;4.55;1.90;;;17.50;99.90;;;;;;3048973;22;20057;-90
2022/06/29 02:46:23;;;;;;;3.90;2.00;;;17.50;99.90;;;;;;5002891;28;20076;-90
2022/06/29 02:49:12;;;;;;;3.33;1.77;;;17.50;99.90;;;;;;4957668;28;20042;-90
2022/06/29 02:51:59;;;;;;;3.33;1.50;;;17.50;99.90;;;;;;4990198;28;20038;-90
2022/06/29 02:54:48;;;;;;;4.07;1.90;;;17.40;99.90;;;;;;5012604;28;20057;-90
2022/06/29 02:57:28;;;;;;;3.35;1.75;;;17.40;99.90;;;;;;4991878;28;20512;-90
2022/06/29 03:00:05;;;;;;;3.33;1.60;;;17.40;99.90;;;;;;4995362;28;20022;-90
2022/06/29 03:02:56;;;;;;;3.08;1.60;;;17.40;99.90;;;;;;4995517;28;20030;-90
2022/06/29 03:05:50;;;;;;;2.65;1.52;;;17.30;99.90;;;;;;4985206;28;20096;-90
2022/06/29 03:08:45;;;;;;;3.10;1.52;;;17.30;99.90;;;;;;4986692;28;20030;-90
2022/06/29 03:11:59;;;;;;;3.60;1.70;;;17.30;99.90;;;;;;4979902;28;20068;-90
2022/06/29 03:14:58;;;;;;;2.63;1.58;;;17.30;99.90;;;;;;4895231;29;20111;-90
2022/06/29 03:17:39;;;;;;;3.10;1.90;;;17.20;99.90;;;;;;4946456;28;20480;-90
2022/06/29 03:20:23;;;;;;;;;;;;;;;;;;;;;
2022/06/29 03:26:39;;;;;;;2.78;1.42;;;17.30;99.90;;;;;;5013058;28;20524;-90
2022/06/29 03:29:33;;;;;;;3.70;1.80;;;17.30;99.90;;;;;;4993372;28;20053;-90
2022/06/29 03:32:34;;;;;;;3.58;1.80;;;17.30;99.90;;;;;;4991631;28;20022;-90
2022/06/29 04:18:41;;;;;;;2.88;1.60;;;17.20;99.90;;;;;;2948056;22;20049;-87
2022/06/29 04:21:38;;;;;;;4.10;2.17;;;17.10;99.90;;;;;;5040866;28;20040;-88
2022/06/29 04:24:04;;;;;;;2.92;1.55;;;17.10;99.90;;;;;;5013937;28;20578;-89
2022/06/29 04:26:45;;;;;;;3.72;1.92;;;17.10;99.90;;;;;;5041808;28;20017;-87
2022/06/29 04:29:20;;;;;;;3.63;1.95;;;17.20;99.90;;;;;;5013518;28;20117;-89
2022/06/29 04:31:55;;;;;;;4.47;2.53;;;17.10;99.90;;;;;;4996348;28;20091;-89
2022/06/29 04:38:05;;;;;;;4.40;2.03;;;17.30;99.90;;;;;;5030110;23;20442;-88
2022/06/29 04:40:49;;;;;;;3.97;2.15;;;17.40;99.90;;;;;;5024497;28;20025;-88
2022/06/29 04:44:34;;;;;;;;;;;;;;;;;;;;;
2022/06/29 04:50:12;;;;;;;3.55;1.73;;;17.60;99.90;;;;;;4987221;22;21601;-90
2022/06/29 04:52:41;;;;;;;3.38;2.00;;;17.60;99.90;;;;;;5008073;28;20412;-90
2022/06/29 04:55:08;;;;;;;3.35;1.95;;;17.60;99.90;;;;;;5029643;28;20030;-89
2022/06/29 04:57:33;;;;;;;3.63;1.92;;;17.60;99.90;;;;;;5024604;28;20567;-90
2022/06/29 04:59:59;;;;;;;3.58;1.63;;;17.60;99.90;;;;;;5021794;28;20034;-90
2022/06/29 05:02:28;;;;;;;4.53;1.90;;;17.60;99.90;;;;;;5007962;28;20519;-89
2022/06/29 05:04:53;;;;;;;4.63;2.10;;;17.60;99.90;;;;;;4990252;28;20037;-90
2022/06/29 05:07:19;;;;;;;3.40;1.83;;;17.60;99.90;;;;;;4991597;28;20033;-89
2022/06/29 05:09:45;;;;;;;5.25;2.05;;;17.50;99.90;;;;;;4983435;28;20034;-89
2022/06/29 05:12:11;;;;;;;4.25;2.17;;;17.90;99.90;;;;;;4992997;28;20026;-88
2022/06/29 05:14:37;;;;;;;3.60;2.00;;;17.50;99.90;;;;;;4981561;28;20556;-88
2022/06/29 05:17:03;;;;;;;3.75;2.15;;;17.50;99.90;;;;;;4990109;28;20106;-89
2022/06/29 05:19:28;;;;;;;3.78;2.10;;;17.50;99.90;;;;;;4987889;28;20046;-88
2022/06/29 05:21:54;;;;;;;5.05;2.05;;;17.50;99.90;;;;;;4991777;28;20041;-88
2022/06/29 05:24:19;;;;;;;3.95;2.08;;;17.50;99.90;;;;;;4981858;28;20030;-87
2022/06/29 05:26:45;;;;;;;3.67;2.00;;;17.50;99.90;;;;;;5000663;28;20482;-87
2022/06/29 05:29:11;;;;;;;4.60;2.13;;;17.50;99.90;;;;;;4996111;28;20041;-88
2022/06/29 05:31:36;;;;;;;4.15;1.98;;;17.60;99.90;;;;;;5004672;28;20018;-87
2022/06/29 05:34:02;;;;;;;3.30;1.67;;;17.60;99.90;;;;;;4992500;28;20018;-87
2022/06/29 05:36:28;;;;;;;3.78;2.00;;;17.60;99.90;;;;;;5009044;28;20026;-88
2022/06/29 05:38:53;;;;;;;5.07;2.15;;;17.60;99.90;;;;;;4988491;28;20430;-89
2022/06/29 05:41:19;;;;;;;4.85;2.35;;;17.60;99.90;;;;;;5003896;28;20029;-88
2022/06/29 05:43:49;;;;;;;3.60;2.05;;;17.70;99.90;;;;;;4993449;28;20093;-88
2022/06/29 05:46:15;;;;;;;5.75;2.05;;;17.70;99.90;;;;;;5005754;28;20030;-88
2022/06/29 05:48:41;;;;;;;6.22;2.30;;;17.70;99.90;;;;;;4990462;28;20113;-88
2022/06/29 05:51:07;;;;;;;4.00;1.92;;;17.70;99.90;;;;;;4987846;28;20121;-88
2022/06/29 05:53:32;;;;;;;4.20;2.45;;;17.80;99.90;;;;;;4996890;28;20161;-88
2022/06/29 05:56:01;;;;;;;4.70;2.05;;;17.80;99.90;;;;;;4998662;28;20370;-88
2022/06/29 05:58:30;;;;;;;4.00;2.30;;;17.70;99.90;;;;;;5016595;28;20194;-89
2022/06/29 06:00:56;;;;;;;5.38;2.53;;;17.70;99.90;;;;;;5001976;28;20498;-88
2022/06/29 06:03:21;;;;;;;5.55;2.60;;;17.60;99.90;;;;;;5014793;28;20033;-88
2022/06/29 06:05:52;;;;;;;5.50;2.15;;;17.60;99.90;;;;;;5012961;28;20036;-88
2022/06/29 06:08:23;;;;;;;3.97;2.20;;;17.60;99.90;;;;;;5001667;28;20025;-88
2022/06/29 06:10:55;;;;;;;5.03;2.80;;;17.40;99.90;;;;;;5002933;28;20030;-88
2022/06/29 06:13:22;;;;;;;5.45;2.22;;;17.40;99.90;;;;;;4990875;28;20100;-88
2022/06/29 06:15:49;;;;;;;4.80;3.00;;;17.40;99.90;;;;;;4995411;28;20053;-88
2022/06/29 06:18:14;;;;;;;4.95;3.00;;;17.40;99.90;;;;;;4997377;28;20465;-88
2022/06/29 06:20:40;;;;;;;4.10;2.72;;;17.40;99.90;;;;;;4999514;28;20022;-88
2022/06/29 06:23:06;;;;;;;6.53;3.35;;;17.40;99.90;;;;;;5014238;28;20029;-88
2022/06/29 06:25:35;;;;;;;6.68;3.60;;;17.60;99.90;;;;;;4988515;28;20450;-88
2022/06/29 06:28:01;;;;;;;7.45;3.88;;;17.70;99.90;;;;;;4994005;28;20030;-88
2022/06/29 06:30:27;;;;;;;7.45;3.53;;;17.90;99.90;;;;;;4994470;28;20053;-89
2022/06/29 06:32:54;;;;;;;7.00;3.25;;;18.10;99.90;;;;;;5014511;28;20026;-88
2022/06/29 06:35:20;;;;;;;5.65;3.40;;;18.50;99.90;;;;;;4994458;28;20026;-88
2022/06/29 06:37:47;;;;;;;3.97;2.22;;;18.60;99.90;;;;;;4995856;28;20064;-88
2022/06/29 06:42:57;;;;;;;7.15;3.30;;;19.00;99.90;;;;;;5008141;28;20048;-88
2022/06/29 06:45:23;;;;;;;5.97;2.97;;;19.30;99.90;;;;;;4997031;28;20113;-87
2022/06/29 06:47:49;;;;;;;5.07;3.00;;;19.30;99.90;;;;;;4996033;28;20397;-88
2022/06/29 06:50:15;;;;;;;5.15;2.75;;;19.20;99.90;;;;;;4982844;28;20034;-87
2022/06/29 06:52:41;;;;;;;4.75;2.88;;;19.40;99.90;;;;;;4992500;28;20022;-88
2022/06/29 06:55:07;;;;;;;5.25;3.03;;;19.50;99.90;;;;;;4992603;28;20025;-89
2022/06/29 06:57:33;;;;;;;4.10;2.60;;;19.70;99.90;;;;;;4996434;28;20053;-87
2022/06/29 06:59:58;;;;;;;4.03;2.40;;;20.00;99.90;;;;;;4988864;28;20065;-88
2022/06/29 08:21:04;;;;;;;2.53;1.58;;;24.00;99.90;;;;;;4848665;22;20045;-86
2022/06/29 08:23:30;;;;;;;2.72;1.63;;;24.10;99.90;;;;;;4991547;28;20022;-86
2022/06/29 08:25:57;;;;;;;3.15;1.80;;;24.40;99.90;;;;;;4993035;28;20026;-87
2022/06/29 08:28:25;;;;;;;3.15;1.73;;;24.40;99.90;;;;;;4987281;28;20571;-87
2022/06/29 08:30:50;;;;;;;3.42;1.83;;;24.50;99.90;;;;;;4997017;28;20401;-87
2022/06/29 08:33:17;;;;;;;2.97;1.33;;;24.50;99.90;;;;;;4995655;28;20025;-86
2022/06/29 17:57:30;;;;;;;3.03;1.23;;;26.20;98.00;;;;;;5051308;23;20056;-89
2022/06/29 18:00:05;;;;;;;4.07;1.10;;;26.00;98.20;;;;;;5037281;28;20025;-89
2022/06/29 18:02:33;;;;;;;2.17;1.10;;;25.90;98.00;;;;;;5021855;28;20045;-88
2022/06/29 18:05:08;;;;;;;2.35;1.20;;;25.90;98.20;;;;;;5043936;28;20104;-88
2022/06/29 18:07:47;;;;;;;1.98;1.20;;;26.20;98.40;;;;;;5030346;28;20036;-89
2022/06/29 18:10:22;;;;;;;2.80;1.23;;;25.70;98.40;;;;;;5030338;28;20049;-88
2022/06/29 18:12:48;;;;;;;3.45;1.05;;;25.70;98.50;;;;;;5049233;28;20092;-88
2022/06/29 18:15:17;;;;;;;2.78;1.17;;;25.60;98.90;;;;;;5056019;28;20021;-88
2022/06/29 18:17:44;;;;;;;2.72;1.35;;;25.60;99.80;;;;;;5026595;28;20026;-88
2022/06/29 18:20:10;;;;;;;2.03;1.23;;;25.50;99.90;;;;;;5016645;28;20033;-88
2022/06/29 18:22:51;;;;;;;3.13;1.05;;;25.50;99.90;;;;;;5028355;28;20056;-90
2022/06/29 18:25:16;;;;;;;7.70;1.40;;;25.50;99.90;;;;;;5041670;28;20481;-88
2022/06/29 18:27:42;;;;;;;3.42;1.20;;;25.50;99.90;;;;;;5034276;28;20033;-88
2022/06/29 18:30:09;;;;;;;2.83;1.35;;;25.30;99.90;;;;;;5052388;28;20037;-88
2022/06/29 18:32:36;;;;;;;2.75;1.20;;;25.30;99.90;;;;;;5055853;28;20021;-87
2022/06/29 18:35:07;;;;;;;2.70;1.50;;;25.30;99.90;;;;;;5027293;28;20029;-88
2022/06/29 18:38:03;;;;;;;1.85;1.25;;;25.20;99.90;;;;;;5027144;28;20036;-89
2022/06/29 18:40:28;;;;;;;4.78;1.40;;;25.20;99.90;;;;;;5023827;28;20036;-87
2022/06/29 18:42:54;;;;;;;2.20;1.05;;;25.10;99.90;;;;;;5016895;28;20026;-86
2022/06/29 18:45:20;;;;;;;2.65;1.20;;;25.10;99.90;;;;;;5014790;28;20383;-88
2022/06/29 18:47:45;;;;;;;2.58;1.33;;;25.10;99.90;;;;;;5033687;28;20053;-87
2022/06/29 18:50:16;;;;;;;2.70;1.23;;;25.20;99.90;;;;;;5019712;28;20021;-90
2022/06/29 18:52:47;;;;;;;2.25;1.10;;;25.00;99.90;;;;;;5019843;28;20049;-88
2022/06/29 18:55:13;;;;;;;1.83;0.85;;;25.00;99.90;;;;;;5030214;28;20096;-87
2022/06/29 18:57:40;;;;;;;1.92;1.00;;;24.90;99.90;;;;;;5016938;28;20064;-90
2022/06/29 19:00:07;;;;;;;3.58;1.08;;;24.80;99.90;;;;;;5016024;28;20033;-88
2022/06/29 19:02:37;;;;;;;4.15;1.15;;;24.70;99.90;;;;;;5009262;28;20048;-89
2022/06/29 19:05:28;;;;;;;;;;;;;;;;;;;;;
2022/06/29 19:07:57;;;;;;;2.30;1.02;;;24.70;99.90;;;;;;5024209;28;20045;-89
2022/06/29 19:10:41;;;;;;;4.60;1.30;;;24.60;99.90;;;;;;5017021;28;20034;-91
2022/06/29 19:13:44;;;;;;;1.58;1.00;;;24.50;99.90;;;;;;5033416;28;20044;-91
2022/06/29 19:16:26;;;;;;;2.20;1.10;;;24.50;99.90;;;;;;5017758;28;20033;-91
2022/06/29 19:18:55;;;;;;;3.75;1.23;;;24.40;99.90;;;;;;5019975;28;20030;-90
2022/06/29 19:21:24;;;;;;;2.22;1.13;;;24.40;99.90;;;;;;5019001;28;20056;-91
2022/06/29 19:24:10;;;;;;;3.30;1.00;;;24.30;99.90;;;;;;5017396;28;20026;-91
2022/06/29 19:26:46;;;;;;;2.33;1.05;;;24.20;99.90;;;;;;5018284;28;20116;-89
2022/06/29 19:29:20;;;;;;;2.53;1.13;;;24.20;99.90;;;;;;5032464;28;20025;-87
2022/06/29 19:31:56;;;;;;;1.95;0.95;;;24.10;99.90;;;;;;5031884;28;20025;-89
2022/06/29 19:34:47;;;;;;;3.90;1.33;;;24.10;99.90;;;;;;5011332;28;20428;-89
2022/06/29 19:37:29;;;;;;;2.53;1.30;;;24.00;99.90;;;;;;5028515;28;20105;-89
2022/06/29 19:40:01;;;;;;;3.33;1.10;;;23.60;99.90;;;;;;5009244;28;20063;-90
2022/06/29 19:42:59;;;;;;;3.88;1.63;;;23.90;99.90;;;;;;5009558;28;20060;-90
2022/06/29 19:45:42;;;;;;;2.65;1.25;;;23.80;99.90;;;;;;5011032;28;20032;-87
2022/06/29 19:49:02;;;;;;;2.90;1.15;;;23.70;99.90;;;;;;5014877;28;20069;-89
2022/06/29 19:51:35;;;;;;;2.25;1.05;;;23.70;99.90;;;;;;5019084;28;20049;-90
2022/06/29 19:54:12;;;;;;;1.85;1.10;;;23.60;99.90;;;;;;5015496;28;20029;-88
2022/06/29 19:56:45;;;;;;;1.65;0.95;;;23.60;99.90;;;;;;5010731;28;20088;-89
2022/06/29 19:59:13;;;;;;;1.63;1.00;;;23.70;99.90;;;;;;5013444;28;20029;-88
2022/06/29 20:01:41;;;;;;;2.10;1.20;;;23.50;99.90;;;;;;5013724;28;20029;-88
2022/06/29 20:04:07;;;;;;;2.63;1.20;;;23.50;99.90;;;;;;5008957;28;20453;-88
2022/06/29 20:06:32;;;;;;;2.92;0.90;;;23.50;99.90;;;;;;5031874;28;20022;-89
2022/06/29 20:08:59;;;;;;;2.03;1.10;;;23.50;99.90;;;;;;5011414;28;20633;-88
2022/06/29 20:11:25;;;;;;;2.13;1.05;;;23.40;99.90;;;;;;5014476;28;20017;-88
2022/06/29 20:13:52;;;;;;;3.88;1.15;;;23.40;99.90;;;;;;5032173;28;20028;-89
2022/06/29 20:16:18;;;;;;;2.95;1.10;;;23.40;99.90;;;;;;5009534;28;20099;-88
2022/06/29 20:18:45;;;;;;;2.30;1.20;;;23.40;99.90;;;;;;5015242;28;20025;-89
2022/06/29 20:21:11;;;;;;;2.63;1.20;;;23.30;99.90;;;;;;5012023;28;20117;-88
2022/06/29 20:23:37;;;;;;;3.47;0.90;;;23.40;99.90;;;;;;5012943;28;20060;-88
2022/06/29 20:26:06;;;;;;;2.65;1.05;;;23.30;99.90;;;;;;5030914;28;20077;-88
2022/06/29 20:28:32;;;;;;;3.70;1.00;;;23.20;99.90;;;;;;5032263;28;20037;-87
2022/06/29 20:30:58;;;;;;;2.38;0.88;;;23.20;99.90;;;;;;5032796;28;20032;-88
2022/06/29 20:33:24;;;;;;;4.07;1.10;;;23.20;99.90;;;;;;5015339;28;20022;-90
2022/06/29 20:35:50;;;;;;;2.65;1.20;;;23.20;99.90;;;;;;5013013;28;20447;-87
2022/06/29 20:38:16;;;;;;;2.50;1.08;;;23.10;99.90;;;;;;5016741;28;20021;-88
2022/06/29 20:40:43;;;;;;;2.80;1.23;;;23.10;99.90;;;;;;5006962;28;20524;-87
2022/06/29 20:43:09;;;;;;;2.42;1.05;;;23.00;99.90;;;;;;5028214;28;20139;-88
2022/06/29 20:45:36;;;;;;;3.40;1.50;;;23.00;99.90;;;;;;5009322;28;20013;-89
2022/06/29 20:48:03;;;;;;;7.20;1.10;;;22.90;99.90;;;;;;5013360;28;20052;-88
2022/06/29 20:50:31;;;;;;;2.28;0.95;;;22.80;99.90;;;;;;5012911;28;20026;-88
2022/06/29 20:52:58;;;;;;;1.65;0.80;;;22.70;99.90;;;;;;5007176;28;20017;-88
2022/06/29 20:55:25;;;;;;;3.55;1.25;;;22.80;99.90;;;;;;5025754;28;20018;-88
2022/06/29 20:57:52;;;;;;;2.47;1.10;;;22.70;99.90;;;;;;5011837;28;20052;-87
2022/06/29 21:00:21;;;;;;;2.10;0.90;;;22.60;99.90;;;;;;5011126;28;20061;-88
2022/06/29 21:02:50;;;;;;;2.28;1.00;;;22.60;99.90;;;;;;5006606;28;20061;-88
2022/06/29 21:05:17;;;;;;;2.33;1.33;;;22.50;99.90;;;;;;5019160;28;20029;-88
2022/06/29 21:07:50;;;;;;;2.55;1.02;;;22.50;99.90;;;;;;5009902;28;20029;-87
2022/06/29 21:10:16;;;;;;;2.03;1.00;;;22.40;99.90;;;;;;5028628;28;20028;-88
2022/06/29 21:12:42;;;;;;;3.15;1.20;;;22.40;99.90;;;;;;5011172;28;20033;-87
2022/06/29 21:15:09;;;;;;;2.47;1.15;;;22.30;99.90;;;;;;5012362;28;20017;-88
2022/06/29 21:17:35;;;;;;;2.95;1.27;;;22.30;99.90;;;;;;5024200;28;20022;-88
2022/06/29 21:20:04;;;;;;;4.78;1.10;;;22.20;99.90;;;;;;5013029;28;20029;-88
2022/06/29 21:22:31;;;;;;;3.15;1.70;;;22.10;99.90;;;;;;5031834;28;20105;-87
2022/06/29 21:24:59;;;;;;;3.30;1.45;;;22.10;99.90;;;;;;5033700;28;20037;-89
2022/06/29 21:27:24;;;;;;;3.30;1.17;;;22.00;99.90;;;;;;5012329;28;20054;-88
2022/06/29 21:29:51;;;;;;;2.30;1.05;;;21.90;99.90;;;;;;5035896;28;20064;-88
2022/06/29 21:32:17;;;;;;;3.25;1.20;;;21.90;99.90;;;;;;5030996;28;20030;-88
2022/06/29 21:34:42;;;;;;;3.47;1.30;;;21.80;99.90;;;;;;5033608;28;20082;-87
2022/06/29 21:37:08;;;;;;;2.00;1.00;;;21.80;99.90;;;;;;5014058;28;20049;-88
2022/06/29 21:39:34;;;;;;;3.15;1.33;;;21.80;99.90;;;;;;5016300;28;20101;-88
2022/06/29 21:41:59;;;;;;;2.33;1.30;;;21.70;99.90;;;;;;5033335;28;20057;-88
2022/06/29 21:44:26;;;;;;;3.45;1.27;;;21.70;99.90;;;;;;5015598;28;20037;-87
2022/06/29 21:46:51;;;;;;;3.25;1.30;;;21.70;99.90;;;;;;5029766;28;20735;-87
2022/06/29 21:52:01;;;;;;;3.30;1.13;;;21.60;99.90;;;;;;5031528;28;20036;-88
2022/06/29 21:54:27;;;;;;;3.15;0.90;;;21.60;99.90;;;;;;5030738;28;20104;-87
2022/06/29 21:56:54;;;;;;;1.63;0.70;;;21.60;99.90;;;;;;5032255;28;20090;-87
2022/06/29 21:59:21;;;;;;;1.50;0.80;;;21.60;99.90;;;;;;5031630;28;20025;-87
2022/06/29 22:01:49;;;;;;;2.28;1.00;;;21.50;99.90;;;;;;5015905;28;20040;-88
2022/06/29 22:04:15;;;;;;;4.22;1.10;;;21.50;99.90;;;;;;5009072;28;20037;-88
2022/06/29 22:06:41;;;;;;;2.97;1.20;;;21.50;99.90;;;;;;5032563;28;20018;-88
2022/06/29 22:09:06;;;;;;;1.85;0.82;;;21.40;99.90;;;;;;5027824;28;20030;-87
2022/06/29 22:11:33;;;;;;;1.67;0.90;;;21.40;99.90;;;;;;5011522;28;20041;-88
2022/06/29 22:13:59;;;;;;;2.28;0.90;;;21.40;99.90;;;;;;5013807;28;20132;-87
2022/06/29 22:16:24;;;;;;;1.90;1.02;;;21.30;99.90;;;;;;5030527;28;20021;-88
2022/06/29 22:18:50;;;;;;;1.92;0.82;;;21.10;99.90;;;;;;5015529;28;20041;-87
2022/06/29 22:21:17;;;;;;;1.73;0.93;;;21.30;99.90;;;;;;5013861;28;20029;-88
2022/06/29 22:23:45;;;;;;;1.83;1.00;;;21.20;99.90;;;;;;5013331;28;20036;-87
2022/06/29 22:26:11;;;;;;;2.70;1.02;;;21.20;99.90;;;;;;5011825;28;20684;-87
2022/06/29 22:28:37;;;;;;;1.80;0.75;;;21.20;99.90;;;;;;5014196;28;20037;-87
2022/06/29 22:31:03;;;;;;;2.22;0.80;;;21.20;99.90;;;;;;5032989;28;20029;-88
2022/06/29 22:33:29;;;;;;;1.92;0.90;;;21.10;99.90;;;;;;5013835;28;20029;-88
2022/06/29 22:35:56;;;;;;;2.85;0.70;;;21.10;99.90;;;;;;5013820;28;20037;-87
2022/06/29 22:38:23;;;;;;;1.67;1.00;;;21.10;99.90;;;;;;5011268;28;20060;-87
2022/06/29 22:40:49;;;;;;;2.30;0.68;;;21.10;99.90;;;;;;5013625;28;20033;-88
2022/06/29 22:43:15;;;;;;;1.90;0.80;;;21.00;99.90;;;;;;5031612;28;20029;-87
2022/06/29 22:45:41;;;;;;;1.77;0.90;;;21.00;99.90;;;;;;5012774;28;20071;-87
2022/06/29 22:48:07;;;;;;;2.05;0.80;;;20.90;99.90;;;;;;5014989;28;20045;-87
2022/06/29 22:50:33;;;;;;;1.30;0.60;;;20.90;99.90;;;;;;5013914;28;20377;-88
2022/06/29 22:52:59;;;;;;;2.17;0.70;;;20.80;99.90;;;;;;5029494;28;20232;-87
2022/06/29 22:55:24;;;;;;;2.72;0.90;;;20.90;99.90;;;;;;5011307;28;20473;-88
2022/06/29 22:57:50;;;;;;;1.95;0.98;;;20.70;99.90;;;;;;5031143;28;20760;-87
2022/06/29 23:00:16;;;;;;;1.17;0.60;;;20.80;99.90;;;;;;5026130;28;20108;-88
2022/06/29 23:02:42;;;;;;;4.03;1.05;;;20.80;99.90;;;;;;5010144;28;20036;-87
2022/06/29 23:05:08;;;;;;;1.85;0.88;;;20.70;99.90;;;;;;5024078;28;20021;-89
2022/06/29 23:07:55;;;;;;;2.50;0.90;;;20.70;99.90;;;;;;5026866;28;20030;-86
2022/06/29 23:13:05;;;;;;;2.40;1.00;;;20.70;99.90;;;;;;5030215;28;20112;-88
2022/06/29 23:15:31;;;;;;;2.05;0.80;;;20.70;99.90;;;;;;5014575;28;20495;-87
2022/06/29 23:17:57;;;;;;;1.65;0.75;;;20.60;99.90;;;;;;5027278;28;20462;-88
2022/06/29 23:20:23;;;;;;;2.13;0.85;;;20.60;99.90;;;;;;5029451;28;20222;-87
2022/06/29 23:22:48;;;;;;;2.47;1.25;;;20.60;99.90;;;;;;5011618;28;20034;-87
2022/06/29 23:25:14;;;;;;;2.40;1.08;;;20.50;99.90;;;;;;5026542;28;20030;-88
2022/06/29 23:27:40;;;;;;;2.10;0.90;;;20.50;99.90;;;;;;5031181;28;20163;-87
2022/06/29 23:30:06;;;;;;;3.80;1.00;;;20.40;99.90;;;;;;5010034;28;20025;-87
2022/06/29 23:32:32;;;;;;;2.17;0.93;;;20.40;99.90;;;;;;5028763;28;20037;-87
2022/06/29 23:34:58;;;;;;;2.38;0.80;;;20.40;99.90;;;;;;5026686;28;20394;-87
2022/06/29 23:37:23;;;;;;;1.80;0.80;;;20.40;99.90;;;;;;5012051;28;20021;-88
2022/06/29 23:39:49;;;;;;;1.08;0.70;;;20.30;99.90;;;;;;5014563;28;20033;-88
2022/06/29 23:42:16;;;;;;;4.13;1.25;;;20.30;99.90;;;;;;5033509;28;20030;-88
2022/06/29 23:44:42;;;;;;;1.92;0.88;;;20.30;99.90;;;;;;5049721;28;20033;-87
2022/06/29 23:47:07;;;;;;;1.88;0.80;;;20.30;99.90;;;;;;5050167;28;20033;-88
2022/06/29 23:49:33;;;;;;;2.67;1.20;;;20.30;99.90;;;;;;5019929;28;20029;-87
2022/06/29 23:51:59;;;;;;;3.30;1.20;;;20.20;99.90;;;;;;5016383;28;20030;-87
2022/06/29 23:54:25;;;;;;;3.10;1.20;;;20.20;99.90;;;;;;5031417;28;20088;-87
2022/06/29 23:56:51;;;;;;;2.65;1.10;;;20.20;99.90;;;;;;5030941;28;20033;-87
2022/06/29 23:59:17;;;;;;;2.85;1.48;;;20.20;99.90;;;;;;5053798;22;20049;-89
